createdAt,value
2022-08-25T00:00:39.627Z,75.42
2022-08-25T00:01:39.611Z,76.35
2022-08-25T00:02:39.696Z,75.75
2022-08-25T00:03:39.660Z,76.15
2022-08-25T00:04:39.613Z,75.95
2022-08-25T00:05:39.579Z,76.35
2022-08-25T00:06:39.563Z,76.35
2022-08-25T00:07:39.549Z,77.00
2022-08-25T00:08:39.586Z,76.59
2022-08-25T00:09:39.524Z,76.69
2022-08-25T00:10:39.530Z,76.29
2022-08-25T00:11:39.505Z,76.39
2022-08-25T00:12:39.502Z,76.09
2022-08-25T00:13:39.504Z,76.59
2022-08-25T00:14:39.480Z,76.29
2022-08-25T00:15:39.502Z,76.29
2022-08-25T00:16:39.459Z,77.00
2022-08-25T00:17:39.442Z,76.69
2022-08-25T00:18:39.455Z,76.19
2022-08-25T00:19:39.422Z,76.19
2022-08-25T00:20:39.418Z,76.49
2022-08-25T00:21:39.400Z,76.56
2022-08-25T00:22:39.397Z,76.15
2022-08-25T00:23:39.407Z,76.15
2022-08-25T00:24:39.373Z,76.15
2022-08-25T00:25:39.384Z,75.75
2022-08-25T00:26:39.356Z,76.25
2022-08-25T00:27:39.338Z,75.75
2022-08-25T00:28:39.348Z,75.65
2022-08-25T00:29:39.316Z,75.65
2022-08-25T00:30:39.312Z,75.85
2022-08-25T00:31:39.379Z,75.45
2022-08-25T00:32:39.293Z,75.15
2022-08-25T00:33:39.294Z,75.35
2022-08-25T00:34:39.270Z,75.75
2022-08-25T00:35:39.255Z,75.95
2022-08-25T00:36:39.250Z,75.25
2022-08-25T00:37:39.230Z,75.45
2022-08-25T00:38:39.246Z,75.05
2022-08-25T00:39:39.212Z,75.25
2022-08-25T00:40:39.206Z,75.25
2022-08-25T00:41:39.191Z,75.35
2022-08-25T00:42:39.203Z,75.05
2022-08-25T00:43:39.192Z,75.25
2022-08-25T00:44:39.167Z,75.15
2022-08-25T00:45:39.152Z,75.15
2022-08-25T00:46:39.179Z,75.05
2022-08-25T00:47:39.129Z,75.05
2022-08-25T00:48:39.142Z,74.74
2022-08-25T00:49:39.112Z,74.95
2022-08-25T00:50:39.103Z,74.85
2022-08-25T00:51:39.089Z,75.15
2022-08-25T00:52:39.080Z,75.05
2022-08-25T00:53:39.087Z,75.25
2022-08-25T00:54:39.069Z,75.15
2022-08-25T00:55:39.047Z,75.35
2022-08-25T00:56:39.041Z,75.45
2022-08-25T00:57:39.025Z,75.75
2022-08-25T00:58:39.034Z,75.85
2022-08-25T00:59:39.003Z,75.85
2022-08-25T01:00:38.996Z,75.85
2022-08-25T01:01:39.109Z,75.95
2022-08-25T01:02:39.114Z,76.15
2022-08-25T01:03:38.980Z,75.99
2022-08-25T01:04:38.958Z,76.09
2022-08-25T01:05:38.944Z,76.09
2022-08-25T01:06:38.936Z,76.29
2022-08-25T01:07:38.922Z,76.59
2022-08-25T01:08:38.944Z,76.49
2022-08-25T01:09:38.900Z,76.79
2022-08-25T01:10:38.893Z,76.69
2022-08-25T01:11:38.880Z,76.89
2022-08-25T01:12:38.872Z,76.79
2022-08-25T01:13:38.877Z,77.29
2022-08-25T01:14:38.851Z,77.00
2022-08-25T01:15:38.871Z,77.20
2022-08-25T01:16:38.832Z,77.00
2022-08-25T01:17:38.814Z,77.13
2022-08-25T01:18:38.830Z,77.13
2022-08-25T01:19:38.797Z,77.03
2022-08-25T01:20:38.790Z,77.43
2022-08-25T01:21:38.773Z,77.33
2022-08-25T01:22:38.789Z,77.23
2022-08-25T01:23:38.753Z,77.43
2022-08-25T01:24:38.748Z,77.43
2022-08-25T01:25:38.749Z,77.33
2022-08-25T01:26:38.724Z,77.43
2022-08-25T01:27:38.725Z,77.23
2022-08-25T01:28:38.717Z,77.13
2022-08-25T01:29:38.691Z,77.23
2022-08-25T01:30:38.768Z,77.13
2022-08-25T01:31:38.705Z,77.43
2022-08-25T01:32:38.679Z,77.23
2022-08-25T01:33:38.647Z,77.63
2022-08-25T01:34:38.644Z,77.43
2022-08-25T01:35:38.625Z,77.94
2022-08-25T01:36:38.620Z,77.83
2022-08-25T01:37:38.626Z,77.94
2022-08-25T01:38:38.601Z,77.94
2022-08-25T01:39:38.587Z,78.34
2022-08-25T01:40:38.588Z,78.54
2022-08-25T01:41:38.565Z,78.44
2022-08-25T01:42:38.576Z,78.44
2022-08-25T01:43:38.550Z,78.44
2022-08-25T01:44:38.533Z,78.67
2022-08-25T01:45:38.529Z,78.67
2022-08-25T01:46:38.582Z,78.67
2022-08-25T01:47:38.592Z,78.58
2022-08-25T01:48:38.516Z,78.78
2022-08-25T01:49:38.485Z,78.67
2022-08-25T01:50:38.470Z,78.78
2022-08-25T01:51:38.464Z,78.78
2022-08-25T01:52:38.449Z,78.58
2022-08-25T01:53:38.463Z,78.47
2022-08-25T01:54:38.440Z,78.78
2022-08-25T01:55:38.426Z,79.08
2022-08-25T01:56:38.417Z,79.38
2022-08-25T01:57:38.401Z,79.48
2022-08-25T01:58:38.404Z,79.28
2022-08-25T01:59:38.380Z,79.82
2022-08-25T02:00:38.366Z,79.92
2022-08-25T02:01:38.431Z,80.02
2022-08-25T02:02:38.379Z,80.12
2022-08-25T02:03:38.361Z,79.92
2022-08-25T02:04:38.359Z,80.02
2022-08-25T02:05:38.318Z,80.43
2022-08-25T02:06:38.302Z,80.12
2022-08-25T02:07:38.298Z,80.22
2022-08-25T02:08:38.307Z,80.12
2022-08-25T02:09:38.278Z,80.02
2022-08-25T02:10:38.262Z,80.12
2022-08-25T02:11:38.253Z,79.92
2022-08-25T02:12:38.239Z,79.92
2022-08-25T02:13:38.251Z,80.22
2022-08-25T02:14:38.224Z,80.12
2022-08-25T02:15:38.227Z,80.02
2022-08-25T02:16:38.322Z,79.92
2022-08-25T02:17:38.192Z,80.02
2022-08-25T02:18:38.193Z,79.82
2022-08-25T02:19:38.169Z,79.92
2022-08-25T02:20:38.154Z,79.62
2022-08-25T02:21:38.149Z,79.62
2022-08-25T02:22:38.134Z,79.72
2022-08-25T02:23:38.152Z,79.52
2022-08-25T02:24:38.113Z,79.42
2022-08-25T02:25:38.108Z,79.18
2022-08-25T02:26:38.110Z,79.22
2022-08-25T02:27:38.085Z,79.18
2022-08-25T02:28:38.089Z,79.38
2022-08-25T02:29:38.066Z,79.18
2022-08-25T02:30:38.173Z,79.28
2022-08-25T02:31:38.045Z,79.28
2022-08-25T02:32:38.033Z,79.48
2022-08-25T02:33:38.045Z,79.38
2022-08-25T02:34:38.025Z,79.28
2022-08-25T02:35:38.002Z,79.18
2022-08-25T02:36:37.994Z,79.48
2022-08-25T02:37:37.983Z,79.38
2022-08-25T02:38:38.012Z,79.48
2022-08-25T02:39:37.961Z,79.38
2022-08-25T02:40:37.951Z,79.58
2022-08-25T02:41:37.941Z,79.42
2022-08-25T02:42:37.928Z,79.52
2022-08-25T02:43:37.940Z,79.52
2022-08-25T02:44:37.919Z,79.62
2022-08-25T02:45:37.957Z,79.82
2022-08-25T02:46:37.891Z,80.02
2022-08-25T02:47:37.877Z,79.82
2022-08-25T02:48:37.917Z,79.62
2022-08-25T02:49:37.857Z,79.82
2022-08-25T02:50:37.843Z,79.72
2022-08-25T02:51:37.835Z,80.22
2022-08-25T02:52:37.820Z,80.02
2022-08-25T02:53:37.834Z,80.22
2022-08-25T02:54:37.803Z,80.02
2022-08-25T02:55:37.793Z,79.92
2022-08-25T02:56:37.780Z,79.82
2022-08-25T02:57:37.774Z,79.92
2022-08-25T02:58:37.779Z,79.92
2022-08-25T02:59:37.789Z,79.82
2022-08-25T03:00:37.738Z,79.82
2022-08-25T03:01:37.784Z,80.12
2022-08-25T03:02:37.719Z,80.02
2022-08-25T03:03:39.533Z,80.02
2022-08-25T03:04:37.722Z,80.12
2022-08-25T03:05:37.690Z,80.32
2022-08-25T03:06:37.675Z,80.22
2022-08-25T03:07:37.673Z,80.32
2022-08-25T03:08:37.676Z,80.36
2022-08-25T03:09:38.195Z,80.36
2022-08-25T03:10:37.634Z,80.26
2022-08-25T03:11:37.633Z,80.66
2022-08-25T03:12:37.612Z,80.77
2022-08-25T03:13:37.656Z,80.66
2022-08-25T03:14:37.596Z,80.26
2022-08-25T03:15:37.588Z,80.66
2022-08-25T03:16:37.678Z,80.66
2022-08-25T03:17:37.566Z,80.66
2022-08-25T03:18:37.707Z,80.66
2022-08-25T03:19:37.543Z,80.66
2022-08-25T03:20:37.528Z,80.46
2022-08-25T03:21:37.523Z,80.66
2022-08-25T03:22:37.507Z,80.66
2022-08-25T03:23:37.545Z,80.66
2022-08-25T03:24:37.485Z,80.57
2022-08-25T03:25:37.481Z,80.66
2022-08-25T03:26:37.466Z,80.57
2022-08-25T03:27:37.461Z,80.66
2022-08-25T03:28:37.460Z,80.66
2022-08-25T03:29:37.440Z,80.66
2022-08-25T03:30:37.470Z,80.66
2022-08-25T03:31:37.483Z,80.77
2022-08-25T03:32:37.401Z,80.77
2022-08-25T03:33:37.415Z,81.07
2022-08-25T03:34:37.382Z,80.77
2022-08-25T03:35:37.376Z,80.97
2022-08-25T03:36:37.362Z,80.97
2022-08-25T03:37:37.357Z,81.07
2022-08-25T03:38:37.355Z,81.07
2022-08-25T03:39:37.332Z,80.97
2022-08-25T03:40:37.320Z,81.27
2022-08-25T03:41:37.313Z,81.17
2022-08-25T03:42:37.298Z,81.21
2022-08-25T03:43:37.308Z,81.17
2022-08-25T03:44:37.276Z,80.77
2022-08-25T03:45:37.295Z,80.97
2022-08-25T03:46:37.256Z,81.27
2022-08-25T03:47:37.249Z,80.87
2022-08-25T03:48:37.255Z,80.66
2022-08-25T03:49:37.229Z,80.87
2022-08-25T03:50:37.216Z,80.97
2022-08-25T03:51:37.208Z,80.77
2022-08-25T03:52:42.251Z,80.77
2022-08-25T03:53:37.211Z,80.87
2022-08-25T03:54:37.175Z,80.87
2022-08-25T03:55:37.166Z,80.97
2022-08-25T03:56:37.152Z,81.07
2022-08-25T03:57:37.148Z,80.97
2022-08-25T03:58:37.153Z,80.77
2022-08-25T03:59:37.124Z,80.90
2022-08-25T04:00:37.107Z,81.21
2022-08-25T04:01:37.144Z,81.21
2022-08-25T04:02:37.170Z,81.01
2022-08-25T04:03:37.099Z,81.10
2022-08-25T04:04:37.069Z,81.21
2022-08-25T04:05:37.060Z,81.30
2022-08-25T04:06:37.045Z,81.41
2022-08-25T04:07:37.039Z,81.10
2022-08-25T04:08:37.044Z,81.61
2022-08-25T04:09:37.054Z,81.30
2022-08-25T04:10:37.002Z,81.30
2022-08-25T04:11:36.997Z,81.41
2022-08-25T04:12:36.982Z,81.10
2022-08-25T04:13:36.992Z,80.90
2022-08-25T04:14:36.961Z,81.21
2022-08-25T04:15:36.958Z,81.21
2022-08-25T04:16:36.990Z,81.51
2022-08-25T04:17:36.936Z,81.41
2022-08-25T04:18:36.939Z,81.30
2022-08-25T04:19:36.915Z,81.61
2022-08-25T04:20:36.900Z,81.51
2022-08-25T04:21:36.893Z,81.10
2022-08-25T04:22:36.984Z,81.21
2022-08-25T04:23:36.889Z,81.01
2022-08-25T04:24:36.858Z,80.90
2022-08-25T04:25:36.850Z,81.61
2022-08-25T04:26:36.835Z,81.71
2022-08-25T04:27:36.831Z,81.21
2022-08-25T04:28:36.839Z,81.51
2022-08-25T04:29:36.807Z,81.30
2022-08-25T04:30:36.795Z,81.21
2022-08-25T04:31:36.838Z,81.81
2022-08-25T04:32:36.774Z,82.01
2022-08-25T04:33:36.769Z,81.81
2022-08-25T04:34:36.768Z,81.81
2022-08-25T04:35:36.748Z,81.71
2022-08-25T04:36:36.733Z,81.61
2022-08-25T04:37:36.727Z,82.11
2022-08-25T04:38:36.715Z,81.91
2022-08-25T04:39:36.724Z,81.91
2022-08-25T04:40:36.735Z,82.01
2022-08-25T04:41:36.689Z,82.01
2022-08-25T04:42:36.681Z,81.81
2022-08-25T04:43:36.661Z,81.91
2022-08-25T04:44:36.665Z,82.11
2022-08-25T04:45:36.680Z,82.86
2022-08-25T04:46:36.627Z,82.56
2022-08-25T04:47:36.623Z,82.65
2022-08-25T04:48:36.604Z,82.56
2022-08-25T04:49:36.618Z,82.86
2022-08-25T04:50:36.592Z,82.96
2022-08-25T04:51:36.579Z,82.65
2022-08-25T04:52:36.563Z,82.45
2022-08-25T04:53:36.556Z,82.86
2022-08-25T04:54:37.364Z,82.96
2022-08-25T04:55:36.536Z,82.96
2022-08-25T04:56:36.522Z,82.96
2022-08-25T04:57:36.514Z,82.65
2022-08-25T04:58:36.519Z,82.86
2022-08-25T04:59:36.512Z,82.56
2022-08-25T05:00:36.537Z,83.06
2022-08-25T05:01:37.111Z,82.86
2022-08-25T05:02:36.471Z,83.46
2022-08-25T05:03:36.454Z,83.16
2022-08-25T05:04:36.511Z,82.65
2022-08-25T05:05:36.431Z,83.26
2022-08-25T05:06:36.418Z,83.87
2022-08-25T05:07:36.411Z,83.16
2022-08-25T05:08:36.398Z,83.66
2022-08-25T05:09:36.412Z,83.91
2022-08-25T05:10:36.375Z,83.91
2022-08-25T05:11:36.373Z,84.11
2022-08-25T05:12:36.358Z,84.31
2022-08-25T05:13:36.346Z,83.91
2022-08-25T05:14:36.350Z,84.21
2022-08-25T05:15:36.327Z,84.31
2022-08-25T05:16:36.392Z,84.31
2022-08-25T05:17:36.304Z,84.31
2022-08-25T05:18:36.293Z,84.51
2022-08-25T05:19:36.303Z,84.21
2022-08-25T05:20:36.269Z,84.31
2022-08-25T05:21:36.262Z,83.70
2022-08-25T05:22:36.247Z,84.11
2022-08-25T05:23:36.239Z,84.31
2022-08-25T05:24:36.241Z,83.91
2022-08-25T05:25:36.219Z,84.01
2022-08-25T05:26:36.222Z,83.40
2022-08-25T05:27:36.213Z,84.41
2022-08-25T05:28:36.229Z,84.11
2022-08-25T05:29:36.204Z,83.97
2022-08-25T05:30:36.162Z,83.97
2022-08-25T05:31:41.013Z,82.96
2022-08-25T05:32:36.148Z,83.26
2022-08-25T05:33:36.136Z,82.35
2022-08-25T05:34:36.139Z,83.36
2022-08-25T05:35:36.115Z,82.56
2022-08-25T05:36:36.144Z,83.26
2022-08-25T05:37:36.098Z,83.06
2022-08-25T05:38:36.081Z,82.15
2022-08-25T05:39:36.091Z,82.31
2022-08-25T05:40:36.080Z,82.62
2022-08-25T05:41:36.089Z,82.21
2022-08-25T05:42:36.040Z,81.81
2022-08-25T05:43:36.044Z,82.01
2022-08-25T05:44:36.038Z,82.21
2022-08-25T05:45:36.111Z,81.71
2022-08-25T05:46:36.623Z,81.91
2022-08-25T05:47:36.024Z,81.51
2022-08-25T05:48:35.978Z,81.67
2022-08-25T05:49:35.990Z,81.67
2022-08-25T05:50:35.954Z,81.98
2022-08-25T05:51:35.952Z,80.57
2022-08-25T05:52:35.936Z,81.27
2022-08-25T05:53:35.929Z,81.17
2022-08-25T05:54:35.935Z,80.43
2022-08-25T05:55:35.915Z,80.32
2022-08-25T05:56:35.893Z,81.03
2022-08-25T05:57:35.885Z,80.22
2022-08-25T05:58:35.877Z,80.52
2022-08-25T05:59:35.877Z,79.79
2022-08-25T06:00:35.856Z,79.68
2022-08-25T06:01:35.844Z,79.58
2022-08-25T06:02:35.835Z,79.04
2022-08-25T06:03:35.860Z,77.59
2022-08-25T06:04:39.603Z,76.49
2022-08-25T06:05:35.805Z,77.46
2022-08-25T06:06:35.790Z,76.15
2022-08-25T06:07:35.779Z,75.82
2022-08-25T06:08:35.768Z,75.51
2022-08-25T06:09:35.771Z,74.57
2022-08-25T06:10:35.749Z,74.57
2022-08-25T06:11:35.731Z,73.33
2022-08-25T06:12:35.731Z,73.40
2022-08-25T06:13:35.714Z,74.01
2022-08-25T06:14:35.723Z,73.07
2022-08-25T06:15:35.691Z,72.66
2022-08-25T06:16:35.838Z,72.13
2022-08-25T06:17:35.671Z,71.00
2022-08-25T06:18:35.666Z,71.36
2022-08-25T06:19:35.690Z,68.86
2022-08-25T06:20:35.646Z,69.23
2022-08-25T06:21:35.630Z,69.43
2022-08-25T06:22:35.624Z,69.53
2022-08-25T06:23:35.609Z,69.29
2022-08-25T06:24:35.618Z,69.69
2022-08-25T06:25:35.589Z,68.46
2022-08-25T06:26:35.584Z,68.46
2022-08-25T06:27:35.565Z,67.63
2022-08-25T06:28:35.584Z,66.83
2022-08-25T06:29:35.565Z,67.30
2022-08-25T06:30:35.537Z,65.67
2022-08-25T06:31:35.546Z,65.87
2022-08-25T06:32:35.521Z,65.94
2022-08-25T06:33:35.514Z,65.83
2022-08-25T06:34:35.516Z,65.11
2022-08-25T06:35:35.485Z,65.31
2022-08-25T06:36:35.478Z,62.78
2022-08-25T06:37:35.463Z,63.48
2022-08-25T06:38:35.458Z,64.64
2022-08-25T06:39:35.458Z,62.95
2022-08-25T06:40:35.537Z,62.45
2022-08-25T06:41:36.997Z,61.96
2022-08-25T06:42:35.421Z,62.75
2022-08-25T06:43:35.404Z,63.45
2022-08-25T06:44:35.414Z,62.92
2022-08-25T06:45:35.380Z,62.52
2022-08-25T06:46:36.455Z,62.42
2022-08-25T06:47:35.359Z,62.42
2022-08-25T06:48:35.353Z,63.32
2022-08-25T06:49:36.238Z,62.10
2022-08-25T06:50:35.338Z,60.60
2022-08-25T06:51:35.319Z,61.00
2022-08-25T06:52:35.313Z,61.69
2022-08-25T06:53:35.314Z,60.60
2022-08-25T06:54:35.299Z,62.19
2022-08-25T06:55:35.284Z,61.69
2022-08-25T06:56:35.270Z,60.00
2022-08-25T06:57:35.257Z,60.70
2022-08-25T06:58:35.277Z,61.90
2022-08-25T06:59:35.238Z,60.87
2022-08-25T07:00:35.258Z,61.37
2022-08-25T07:01:35.332Z,60.97
2022-08-25T07:02:35.671Z,60.64
2022-08-25T07:03:35.205Z,59.65
2022-08-25T07:04:35.205Z,60.25
2022-08-25T07:05:43.526Z,59.25
2022-08-25T07:06:35.174Z,60.14
2022-08-25T07:07:43.773Z,60.12
2022-08-25T07:08:35.155Z,59.92
2022-08-25T07:09:38.638Z,59.92
2022-08-25T07:10:35.124Z,60.61
2022-08-25T07:11:35.110Z,60.69
2022-08-25T07:12:35.105Z,59.86
2022-08-25T07:13:35.090Z,56.88
2022-08-25T07:14:35.099Z,57.38
2022-08-25T07:15:35.066Z,58.47
2022-08-25T07:16:35.137Z,58.64
2022-08-25T07:17:35.085Z,58.42
2022-08-25T07:18:35.041Z,56.53
2022-08-25T07:19:35.044Z,56.30
2022-08-25T07:20:35.018Z,57.50
2022-08-25T07:21:35.735Z,55.41
2022-08-25T07:22:35.001Z,56.77
2022-08-25T07:23:34.992Z,57.27
2022-08-25T07:24:34.994Z,56.65
2022-08-25T07:25:34.964Z,56.35
2022-08-25T07:26:37.646Z,57.74
2022-08-25T07:27:34.945Z,55.33
2022-08-25T07:28:34.936Z,55.33
2022-08-25T07:29:34.939Z,56.20
2022-08-25T07:30:34.933Z,56.37
2022-08-25T07:31:35.061Z,53.70
2022-08-25T07:32:34.893Z,55.28
2022-08-25T07:33:34.881Z,54.49
2022-08-25T07:34:34.893Z,55.47
2022-08-25T07:35:37.594Z,54.96
2022-08-25T07:36:34.905Z,53.87
2022-08-25T07:37:50.299Z,51.97
2022-08-25T07:38:34.850Z,53.35
2022-08-25T07:39:34.840Z,52.17
2022-08-25T07:40:34.860Z,52.76
2022-08-25T07:41:34.801Z,50.68
2022-08-25T07:42:34.797Z,52.66
2022-08-25T07:43:34.807Z,53.75
2022-08-25T07:44:34.791Z,50.29
2022-08-25T07:45:34.755Z,52.36
2022-08-25T07:46:34.922Z,52.44
2022-08-25T07:47:34.736Z,52.24
2022-08-25T07:48:34.730Z,52.31
2022-08-25T07:49:35.989Z,50.54
2022-08-25T07:50:34.720Z,51.72
2022-08-25T07:51:34.696Z,49.94
2022-08-25T07:52:34.691Z,50.61
2022-08-25T07:53:34.679Z,49.62
2022-08-25T07:54:35.269Z,49.79
2022-08-25T07:55:34.658Z,49.20
2022-08-25T07:56:34.649Z,50.12
2022-08-25T07:57:34.638Z,50.12
2022-08-25T07:58:34.669Z,50.49
2022-08-25T07:59:39.275Z,51.10
2022-08-25T08:00:36.006Z,50.71
2022-08-25T08:01:34.635Z,51.50
2022-08-25T08:02:34.695Z,48.24
2022-08-25T08:03:50.257Z,51.20
2022-08-25T08:04:34.593Z,50.49
2022-08-25T08:05:34.555Z,50.59
2022-08-25T08:06:34.547Z,49.50
2022-08-25T08:07:41.947Z,50.26
2022-08-25T08:08:34.532Z,49.77
2022-08-25T08:09:34.538Z,50.76
2022-08-25T08:11:00.569Z,50.76
2022-08-25T08:11:34.503Z,48.59
2022-08-25T08:12:34.483Z,49.97
2022-08-25T08:13:38.031Z,50.76
2022-08-25T08:14:34.493Z,49.08
2022-08-25T08:15:34.451Z,49.38
2022-08-25T08:16:34.549Z,49.38
2022-08-25T08:17:34.443Z,49.40
2022-08-25T08:18:34.427Z,49.10
2022-08-25T08:19:34.431Z,49.60
2022-08-25T08:20:36.164Z,49.60
2022-08-25T08:21:34.397Z,48.88
2022-08-25T08:22:34.383Z,48.88
2022-08-25T08:23:34.372Z,49.18
2022-08-25T08:24:44.711Z,49.65
2022-08-25T08:25:34.363Z,49.45
2022-08-25T08:26:55.399Z,50.02
2022-08-25T08:27:34.337Z,48.14
2022-08-25T08:28:34.324Z,48.52
2022-08-25T08:29:34.331Z,48.59
2022-08-25T08:30:34.305Z,47.31
2022-08-25T08:31:34.344Z,46.62
2022-08-25T08:32:59.916Z,46.11
2022-08-25T08:33:34.277Z,45.81
2022-08-25T08:34:34.339Z,45.79
2022-08-25T08:35:34.250Z,47.66
2022-08-25T08:36:34.242Z,46.66
2022-08-25T08:37:34.230Z,45.28
2022-08-25T08:38:34.234Z,45.26
2022-08-25T08:39:34.225Z,43.98
2022-08-25T08:40:34.331Z,41.72
2022-08-25T08:41:54.273Z,41.72
2022-08-25T08:42:34.190Z,41.24
2022-08-25T08:43:34.171Z,41.72
2022-08-25T08:44:34.876Z,42.79
2022-08-25T08:45:35.420Z,41.72
2022-08-25T08:46:34.217Z,41.03
2022-08-25T08:47:34.133Z,41.63
2022-08-25T08:48:34.119Z,41.74
2022-08-25T08:49:34.106Z,47.25
2022-08-25T08:50:34.198Z,42.04
2022-08-25T08:51:34.088Z,43.51
2022-08-25T08:52:34.079Z,43.61
2022-08-25T08:53:34.420Z,41.45
2022-08-25T08:54:34.339Z,42.11
2022-08-25T08:55:34.087Z,42.32
2022-08-25T08:56:34.086Z,40.23
2022-08-25T08:57:34.026Z,39.94
2022-08-25T08:58:34.028Z,40.13
2022-08-25T08:59:34.011Z,40.90
2022-08-25T09:00:34.019Z,42.76
2022-08-25T09:01:34.021Z,39.92
2022-08-25T09:02:39.119Z,40.31
2022-08-25T09:03:34.028Z,38.54
2022-08-25T09:04:34.707Z,40.03
2022-08-25T09:05:37.234Z,39.45
2022-08-25T09:06:33.948Z,40.45
2022-08-25T09:07:33.950Z,43.69
2022-08-25T09:08:33.925Z,42.51
2022-08-25T09:09:35.766Z,40.43
2022-08-25T09:10:34.344Z,39.45
2022-08-25T09:11:33.889Z,40.03
2022-08-25T09:12:33.882Z,41.51
2022-08-25T09:13:33.881Z,43.27
2022-08-25T09:14:33.863Z,43.37
2022-08-25T09:15:40.993Z,41.29
2022-08-25T09:16:34.796Z,41.49
2022-08-25T09:17:33.851Z,41.96
2022-08-25T09:18:35.858Z,40.88
2022-08-25T09:19:33.815Z,40.68
2022-08-25T09:20:33.819Z,39.51
2022-08-25T09:21:33.789Z,39.29
2022-08-25T09:22:36.233Z,36.84
2022-08-25T09:23:33.771Z,37.52
2022-08-25T09:24:33.768Z,37.43
2022-08-25T09:25:52.636Z,38.51
2022-08-25T09:26:33.750Z,38.51
2022-08-25T09:27:33.732Z,37.92
2022-08-25T09:28:33.737Z,38.59
2022-08-25T09:29:33.787Z,38.90
2022-08-25T09:30:33.705Z,39.49
2022-08-25T09:31:33.714Z,38.41
2022-08-25T09:32:33.685Z,37.33
2022-08-25T09:33:35.484Z,38.43
2022-08-25T09:34:33.708Z,39.41
2022-08-25T09:35:33.648Z,38.54
2022-08-25T09:36:37.467Z,41.09
2022-08-25T09:37:33.629Z,40.80
2022-08-25T09:38:33.623Z,40.29
2022-08-25T09:39:33.628Z,40.58
2022-08-25T09:40:33.651Z,41.86
2022-08-25T09:41:33.589Z,39.19
2022-08-25T09:42:33.581Z,40.47
2022-08-25T09:43:33.569Z,39.66
2022-08-25T09:44:33.582Z,39.17
2022-08-25T09:45:33.551Z,38.20
2022-08-25T09:46:33.631Z,36.51
2022-08-25T09:47:33.527Z,36.90
2022-08-25T09:48:36.592Z,37.41
2022-08-25T09:49:33.532Z,38.57
2022-08-25T09:50:35.074Z,37.00
2022-08-25T09:51:38.273Z,36.22
2022-08-25T09:52:33.492Z,38.96
2022-08-25T09:53:33.869Z,38.18
2022-08-25T09:54:44.054Z,38.45
2022-08-25T09:55:33.454Z,38.26
2022-08-25T09:56:33.463Z,35.91
2022-08-25T09:57:33.427Z,36.40
2022-08-25T09:58:33.422Z,36.69
2022-08-25T09:59:34.973Z,39.14
2022-08-25T10:00:33.408Z,40.11
2022-08-25T10:01:34.639Z,38.16
2022-08-25T10:02:33.382Z,38.94
2022-08-25T10:03:36.792Z,38.76
2022-08-25T10:04:33.378Z,39.27
2022-08-25T10:05:33.408Z,40.35
2022-08-25T10:06:33.342Z,40.27
2022-08-25T10:07:33.329Z,40.47
2022-08-25T10:08:33.324Z,40.68
2022-08-25T10:09:33.325Z,42.08
2022-08-25T10:10:33.306Z,43.15
2022-08-25T10:11:33.291Z,41.21
2022-08-25T10:12:33.288Z,41.80
2022-08-25T10:13:33.269Z,41.09
2022-08-25T10:14:33.260Z,41.88
2022-08-25T10:15:33.375Z,42.18
2022-08-25T10:16:36.440Z,42.37
2022-08-25T10:17:33.633Z,39.92
2022-08-25T10:18:33.221Z,42.35
2022-08-25T10:19:33.214Z,41.66
2022-08-25T10:20:35.302Z,42.74
2022-08-25T10:21:33.197Z,40.88
2022-08-25T10:22:33.181Z,40.78
2022-08-25T10:23:33.173Z,39.78
2022-08-25T10:24:33.159Z,39.80
2022-08-25T10:25:33.171Z,39.90
2022-08-25T10:26:35.045Z,40.19
2022-08-25T10:27:33.132Z,41.27
2022-08-25T10:28:33.119Z,41.49
2022-08-25T10:29:33.155Z,41.11
2022-08-25T10:30:33.208Z,42.10
2022-08-25T10:31:33.133Z,42.21
2022-08-25T10:32:33.080Z,42.80
2022-08-25T10:33:33.073Z,41.92
2022-08-25T10:34:33.057Z,42.90
2022-08-25T10:35:33.074Z,42.51
2022-08-25T10:36:33.056Z,43.29
2022-08-25T10:37:33.288Z,43.00
2022-08-25T10:38:36.085Z,42.11
2022-08-25T10:39:36.509Z,41.45
2022-08-25T10:40:33.032Z,41.74
2022-08-25T10:41:32.998Z,40.86
2022-08-25T10:42:33.929Z,40.86
2022-08-25T10:43:32.974Z,40.86
2022-08-25T10:44:32.959Z,41.45
2022-08-25T10:45:32.986Z,41.74
2022-08-25T10:46:32.999Z,43.12
2022-08-25T10:47:32.934Z,41.43
2022-08-25T10:48:32.946Z,41.33
2022-08-25T10:49:32.914Z,40.84
2022-08-25T10:50:32.931Z,42.41
2022-08-25T10:51:32.890Z,42.58
2022-08-25T10:52:32.874Z,41.02
2022-08-25T10:53:32.878Z,39.72
2022-08-25T10:54:32.885Z,40.31
2022-08-25T10:55:32.867Z,40.72
2022-08-25T10:56:32.842Z,41.51
2022-08-25T10:57:33.438Z,42.58
2022-08-25T10:58:32.817Z,41.90
2022-08-25T10:59:32.814Z,41.71
2022-08-25T11:00:33.372Z,40.72
2022-08-25T11:01:38.924Z,40.84
2022-08-25T11:02:32.783Z,41.53
2022-08-25T11:03:35.353Z,41.53
2022-08-25T11:04:32.754Z,42.32
2022-08-25T11:05:32.838Z,40.74
2022-08-25T11:06:32.736Z,42.32
2022-08-25T11:07:32.729Z,43.39
2022-08-25T11:08:32.719Z,40.94
2022-08-25T11:09:32.715Z,40.45
2022-08-25T11:10:32.725Z,40.96
2022-08-25T11:11:32.696Z,40.76
2022-08-25T11:12:32.688Z,41.74
2022-08-25T11:13:32.676Z,40.96
2022-08-25T11:14:34.704Z,41.06
2022-08-25T11:15:33.445Z,40.47
2022-08-25T11:16:32.689Z,40.56
2022-08-25T11:17:32.634Z,41.67
2022-08-25T11:18:32.620Z,44.22
2022-08-25T11:19:32.713Z,41.16
2022-08-25T11:20:32.617Z,41.35
2022-08-25T11:21:32.594Z,40.47
2022-08-25T11:22:32.600Z,41.17
2022-08-25T11:23:32.572Z,40.66
2022-08-25T11:24:32.576Z,41.16
2022-08-25T11:25:32.554Z,42.33
2022-08-25T11:26:36.134Z,41.25
2022-08-25T11:27:32.537Z,41.06
2022-08-25T11:28:33.056Z,39.66
2022-08-25T11:29:32.537Z,40.74
2022-08-25T11:30:32.557Z,38.68
2022-08-25T11:31:32.496Z,37.60
2022-08-25T11:32:32.479Z,39.56
2022-08-25T11:33:32.474Z,39.95
2022-08-25T11:34:32.480Z,38.68
2022-08-25T11:35:32.456Z,38.78
2022-08-25T11:36:32.445Z,38.68
2022-08-25T11:37:32.431Z,40.84
2022-08-25T11:38:32.424Z,40.06
2022-08-25T11:39:34.668Z,39.74
2022-08-25T11:40:32.475Z,40.33
2022-08-25T11:41:32.392Z,39.06
2022-08-25T11:42:32.378Z,38.56
2022-08-25T11:43:35.855Z,38.96
2022-08-25T11:44:32.355Z,37.70
2022-08-25T11:45:32.366Z,38.88
2022-08-25T11:46:32.377Z,38.88
2022-08-25T11:47:32.335Z,39.17
2022-08-25T11:48:32.319Z,38.68
2022-08-25T11:49:32.310Z,39.66
2022-08-25T11:50:32.324Z,39.95
2022-08-25T11:51:33.640Z,40.74
2022-08-25T11:52:32.292Z,40.25
2022-08-25T11:53:32.274Z,40.64
2022-08-25T11:54:32.258Z,40.16
2022-08-25T11:55:32.268Z,41.24
2022-08-25T11:56:32.671Z,38.98
2022-08-25T11:57:32.232Z,41.33
2022-08-25T11:58:32.222Z,40.92
2022-08-25T11:59:32.211Z,38.37
2022-08-25T12:00:32.218Z,39.84
2022-08-25T12:01:32.191Z,40.03
2022-08-25T12:02:32.178Z,40.13
2022-08-25T12:03:32.174Z,39.35
2022-08-25T12:04:32.258Z,42.10
2022-08-25T12:05:32.272Z,39.45
2022-08-25T12:06:32.135Z,40.92
2022-08-25T12:07:32.132Z,39.72
2022-08-25T12:08:32.118Z,39.43
2022-08-25T12:09:32.112Z,37.96
2022-08-25T12:10:32.130Z,38.84
2022-08-25T12:11:32.091Z,40.11
2022-08-25T12:12:32.082Z,38.45
2022-08-25T12:13:32.090Z,38.07
2022-08-25T12:14:32.059Z,40.03
2022-08-25T12:15:32.071Z,38.07
2022-08-25T12:16:32.139Z,39.25
2022-08-25T12:17:32.031Z,38.96
2022-08-25T12:18:32.018Z,38.07
2022-08-25T12:19:32.011Z,37.88
2022-08-25T12:20:32.019Z,37.58
2022-08-25T12:21:31.992Z,38.56
2022-08-25T12:22:32.012Z,39.25
2022-08-25T12:23:31.978Z,39.72
2022-08-25T12:24:31.962Z,41.19
2022-08-25T12:25:31.980Z,38.04
2022-08-25T12:26:31.936Z,37.25
2022-08-25T12:27:33.540Z,37.92
2022-08-25T12:28:34.908Z,37.92
2022-08-25T12:29:31.913Z,38.00
2022-08-25T12:30:31.966Z,36.82
2022-08-25T12:31:32.745Z,37.61
2022-08-25T12:32:31.875Z,37.29
2022-08-25T12:33:31.871Z,37.29
2022-08-25T12:34:31.855Z,37.18
2022-08-25T12:35:31.876Z,37.37
2022-08-25T12:36:31.842Z,38.14
2022-08-25T12:37:31.828Z,37.65
2022-08-25T12:38:31.820Z,37.24
2022-08-25T12:39:31.828Z,37.52
2022-08-25T12:40:31.855Z,37.01
2022-08-25T12:41:33.753Z,34.67
2022-08-25T12:42:31.773Z,35.25
2022-08-25T12:43:33.979Z,36.04
2022-08-25T12:44:31.777Z,36.82
2022-08-25T12:45:31.759Z,36.43
2022-08-25T12:46:31.735Z,36.82
2022-08-25T12:47:31.736Z,36.51
2022-08-25T12:48:31.714Z,36.02
2022-08-25T12:49:31.743Z,37.09
2022-08-25T12:50:31.698Z,35.90
2022-08-25T12:51:31.694Z,34.73
2022-08-25T12:52:31.678Z,34.94